Flugplatz - Wetter - Augsburg

[Quelle: ADDS]
METAR
EDMA 231720Z 28022G34KT 2500 +SHRA SCT024CB 16/14 Q1008 =
EDMA 231400Z 2315/2324 26008KT CAVOK PROB30 TEMPO 2315/2317 24020G35KT TSRA BKN040CB PROB40 TEMPO 2317/2319 24040G55KT 1800 TSGRRA SCT012 BKN030CB
TAF
EDMA 231400Z 2315/2324 26008KT CAVOK PROB30 TEMPO 2315/2317 24020G35KT TSRA BKN040CB PROB40 TEMPO 2317/2319 24040G55KT 1800 TSGRRA SCT012 BKN030CB =
SR / SS: 03:28 / 19:00 UTC (Augsburg 2022-05-23)

Flugplatz - Wetter - Laupheim

[Quelle: ADDS]
METAR
ETHL 231720Z 10007G17KT 9999 -TSRA FEW039CB SCT060 BKN080 15/13 Q1004 RESHRA BLU =
ETHL 231324Z 2314/2323 05005KT 9999 NSW FEW030 BKN220 PROB30 2314/2320 VRB15G35KT 2000 TSRAGR SCT010 BKN040CB
TAF
ETHL 231324Z 2314/2323 05005KT 9999 NSW FEW030 BKN220 PROB30 2314/2320 VRB15G35KT 2000 TSRAGR SCT010 BKN040CB =
SR / SS: 03:33 / 19:03 UTC (Laupheim 2022-05-23)

Flugplatz - Wetter - Memmingen

[Quelle: ADDS]
METAR
EDJA 231720Z 06009KT 9999 VCTS FEW020 BKN049CB 14/13 Q1005 RETSRA =
EDJA 231400Z 2315/2324 24006KT 9999 FEW040 PROB40 TEMPO 2315/2318 24040G55KT 1800 TSGRRA SCT010 BKN025CB
TAF
EDJA 231400Z 2315/2324 24006KT 9999 FEW040 PROB40 TEMPO 2315/2318 24040G55KT 1800 TSGRRA SCT010 BKN025CB =
SR / SS: 03:32 / 18:59 UTC (Memmingen 2022-05-23)

Flugplatz - Wetter - Neuburg/Donau

[Quelle: ADDS]
METAR
ETSN 231720Z 27011KT 9000 -SHRA SCT060CB BKN090 22/16 Q1006 BLU =
ETSN 231610Z 2317/2402 09007KT 9999 NSW SCT120 BKN200 TEMPO 2317/2322 25010G20KT 5000 SHRA BKN030CB BKN120 PROB30 2317/2322 VRB15G35KT 0500 +TSRAGR BKN020CB BY ETGL
TAF
ETSN 231610Z 2317/2402 09007KT 9999 NSW SCT120 BKN200 TEMPO 2317/2322 25010G20KT 5000 SHRA BKN030CB BKN120 PROB30 2317/2322 VRB15G35KT 0500 +TSRAGR BKN020CB BY ETGL =
SR / SS: 03:25 / 18:58 UTC (Neuburg 2022-05-23)

Flugplatz - Wetter - Stuttgart

[Quelle: ADDS]
METAR
EDDS 231720Z AUTO 09003KT 050V150 CAVOK 18/14 Q1003 TEMPO 22015G25KT SHRA =
EDDS 231700Z 2318/2418 15008KT 9999 SCT040 TEMPO 2318/2321 23015G25KT SHRA BKN040CB PROB30 TEMPO 2318/2321 23020G35KT 3000 TSRAGR BKN030CB BECMG 2400/2402 20003KT TEMPO 2406/2409 24015G25KT SHRA BKN030CB BECMG 2409/2411 25010KT BECMG 2416/2418 25004KT
TAF
EDDS 231700Z 2318/2418 15008KT 9999 SCT040 TEMPO 2318/2321 23015G25KT SHRA BKN040CB PROB30 TEMPO 2318/2321 23020G35KT 3000 TSRAGR BKN030CB BECMG 2400/2402 20003KT TEMPO 2406/2409 24015G25KT SHRA BKN030CB BECMG 2409/2411 25010KT BECMG 2416/2418 25004KT =
SR / SS: 03:33 / 19:06 UTC (Stuttgart 2022-05-23)

Flugplatz - Wetter - Niederstetten

[Quelle: ADDS]
METAR
ETHN 231720Z 18010KT 9999 FEW020CB SCT080 BKN130 19/16 Q1003 BLU =
ETHN 231302Z 2314/2323 16010KT 9999 NSW BKN100 TEMPO 2314/2320 23020G30KT 6000 SHRA SCT040TCU BKN080
TAF
ETHN 231302Z 2314/2323 16010KT 9999 NSW BKN100 TEMPO 2314/2320 23020G30KT 6000 SHRA SCT040TCU BKN080 =
SR / SS: 03:28 / 19:08 UTC (Niederstetten 2022-05-23)